Time;durP1;ratioP1;P1;durP2;ratioP2;P2;SDS_P1;SDS_P2;PMS_P1;PMS_P2;Temp;Humidity;BMP_temperature;BMP_pressure;BME280_temperature;BME280_humidity;BME280_pressure;Samples;Min_cycle;Max_cycle;Signal;HPM_P1;HPM_P2
2022/05/02 00:02:25;;;;;;;28.70;13.17;;;;;;;;;;5036838;28;20148;-58
2022/05/02 00:04:51;;;;;;;22.93;12.97;;;;;;;;;;5032822;28;20041;-57
2022/05/02 00:07:17;;;;;;;23.17;12.63;;;;;;;;;;5036066;28;20407;-58
2022/05/02 00:09:43;;;;;;;21.97;11.77;;;;;;;;;;5037438;28;20055;-58
2022/05/02 00:12:09;;;;;;;20.67;11.70;;;;;;;;;;5040710;28;20040;-58
2022/05/02 00:14:35;;;;;;;21.77;11.77;;;;;;;;;;5049764;28;20053;-58
2022/05/02 00:17:01;;;;;;;21.53;13.07;;;;;;;;;;5046246;28;20044;-58
2022/05/02 00:19:27;;;;;;;21.80;11.23;;;;;;;;;;5041754;28;20496;-58
2022/05/02 00:21:54;;;;;;;22.40;12.53;;;;;;;;;;5032168;28;20034;-58
2022/05/02 00:24:20;;;;;;;20.50;12.37;;;;;;;;;;5032176;28;20056;-58
2022/05/02 00:26:46;;;;;;;26.00;12.80;;;;;;;;;;5039484;28;20414;-58
2022/05/02 00:29:12;;;;;;;22.80;12.37;;;;;;;;;;5035516;28;20475;-58
2022/05/02 00:31:38;;;;;;;24.03;12.90;;;;;;;;;;5041025;28;20048;-58
2022/05/02 00:34:04;;;;;;;24.83;13.73;;;;;;;;;;5039329;28;20454;-58
2022/05/02 00:36:30;;;;;;;33.33;15.67;;;;;;;;;;5046508;28;20040;-58
2022/05/02 00:38:56;;;;;;;24.93;13.97;;;;;;;;;;5045662;28;20044;-58
2022/05/02 00:41:23;;;;;;;29.27;13.83;;;;;;;;;;5040264;28;20128;-58
2022/05/02 00:43:49;;;;;;;25.50;13.70;;;;;;;;;;5035654;28;20052;-58
2022/05/02 00:46:18;;;;;;;29.30;13.40;;;;;;;;;;5034621;28;20053;-58
2022/05/02 00:48:45;;;;;;;30.87;13.87;;;;;;;;;;5036378;28;20072;-58
2022/05/02 00:51:11;;;;;;;24.33;13.23;;;;;;;;;;5040576;28;20411;-58
2022/05/02 00:53:37;;;;;;;22.77;13.27;;;;;;;;;;5031678;28;20046;-58
2022/05/02 00:56:04;;;;;;;31.80;15.03;;;;;;;;;;5039328;28;20144;-58
2022/05/02 00:58:30;;;;;;;28.80;13.93;;;;;;;;;;5039399;28;20400;-58
2022/05/02 01:00:56;;;;;;;27.00;13.87;;;;;;;;;;5037312;28;20049;-58
2022/05/02 01:03:22;;;;;;;27.63;14.97;;;;;;;;;;5031167;28;20387;-57
2022/05/02 01:08:34;;;;;;;24.40;13.77;;;;;;;;;;5041852;28;20038;-58
2022/05/02 01:11:00;;;;;;;29.40;15.60;;;;;;;;;;5031728;28;20055;-58
2022/05/02 01:13:39;;;;;;;29.27;15.27;;;;;;;;;;5031122;28;20145;-58
2022/05/02 01:16:16;;;;;;;33.50;15.67;;;;;;;;;;5031137;28;20034;-58
2022/05/02 01:18:43;;;;;;;32.53;15.70;;;;;;;;;;5031071;28;20372;-58
2022/05/02 01:21:20;;;;;;;33.27;15.97;;;;;;;;;;5028637;28;20316;-58
2022/05/02 01:23:51;;;;;;;27.60;14.90;;;;;;;;;;5030821;28;20034;-58
2022/05/02 01:26:17;;;;;;;28.03;14.97;;;;;;;;;;5042810;28;20037;-58
2022/05/02 01:28:47;;;;;;;29.57;15.80;;;;;;;;;;5030522;28;20055;-58
2022/05/02 01:31:14;;;;;;;32.40;15.73;;;;;;;;;;5039053;28;20049;-58
2022/05/02 01:33:40;;;;;;;31.50;15.93;;;;;;;;;;5030436;28;20376;-58
2022/05/02 01:36:06;;;;;;;32.87;15.23;;;;;;;;;;5039736;28;20052;-58
2022/05/02 01:38:33;;;;;;;37.77;17.43;;;;;;;;;;5031155;28;20073;-58
2022/05/02 01:40:59;;;;;;;35.90;17.00;;;;;;;;;;5043667;28;20049;-58
2022/05/02 01:43:26;;;;;;;31.80;15.37;;;;;;;;;;5031006;28;20052;-58
2022/05/02 01:45:52;;;;;;;39.87;17.80;;;;;;;;;;5043712;28;20041;-58
2022/05/02 01:48:18;;;;;;;35.33;16.90;;;;;;;;;;5034095;28;20504;-58
2022/05/02 01:50:44;;;;;;;33.20;16.30;;;;;;;;;;5045651;28;20044;-59
2022/05/02 01:53:10;;;;;;;32.80;17.43;;;;;;;;;;5031390;28;20037;-58
2022/05/02 01:55:36;;;;;;;38.03;17.87;;;;;;;;;;5032992;28;20041;-58
2022/05/02 01:58:02;;;;;;;30.50;16.43;;;;;;;;;;5033770;28;20041;-58
2022/05/02 02:00:28;;;;;;;43.47;18.93;;;;;;;;;;5040512;28;20632;-58
2022/05/02 02:02:54;;;;;;;35.57;17.33;;;;;;;;;;5041615;28;20045;-58
2022/05/02 02:08:05;;;;;;;35.30;17.03;;;;;;;;;;5046467;28;20041;-58
2022/05/02 02:10:31;;;;;;;35.70;17.43;;;;;;;;;;5040185;28;20072;-58
2022/05/02 02:12:57;;;;;;;30.47;16.23;;;;;;;;;;5047528;28;20044;-58
2022/05/02 02:15:23;;;;;;;31.10;15.40;;;;;;;;;;5029964;28;20045;-58
2022/05/02 02:17:49;;;;;;;28.50;14.97;;;;;;;;;;5030093;28;20128;-58
2022/05/02 02:20:15;;;;;;;36.37;15.70;;;;;;;;;;5030365;28;20296;-58
2022/05/02 02:22:41;;;;;;;36.63;16.53;;;;;;;;;;5029175;28;20039;-58
2022/05/02 02:25:08;;;;;;;40.57;19.07;;;;;;;;;;5039354;28;20037;-58
2022/05/02 02:27:34;;;;;;;30.67;15.97;;;;;;;;;;5036127;28;20067;-60
2022/05/02 02:30:00;;;;;;;31.33;16.47;;;;;;;;;;5035926;28;20312;-61
2022/05/02 02:32:27;;;;;;;35.27;16.23;;;;;;;;;;5033547;28;20081;-60
2022/05/02 02:34:53;;;;;;;29.60;16.10;;;;;;;;;;5035884;28;20432;-58
2022/05/02 02:37:19;;;;;;;29.87;15.73;;;;;;;;;;5031233;28;20088;-60
2022/05/02 02:39:45;;;;;;;28.73;14.97;;;;;;;;;;5035829;28;20292;-61
2022/05/02 02:42:11;;;;;;;33.27;15.37;;;;;;;;;;5036639;28;20298;-58
2022/05/02 02:44:37;;;;;;;31.27;15.87;;;;;;;;;;5030749;28;20103;-60
2022/05/02 02:47:03;;;;;;;32.63;16.27;;;;;;;;;;5042387;28;20412;-61
2022/05/02 02:49:29;;;;;;;35.73;16.80;;;;;;;;;;5030666;28;20049;-58
2022/05/02 02:51:56;;;;;;;34.23;16.70;;;;;;;;;;5038966;28;20292;-58
2022/05/02 02:54:22;;;;;;;33.80;16.77;;;;;;;;;;5029117;28;20099;-58
2022/05/02 02:56:48;;;;;;;36.73;16.80;;;;;;;;;;5036427;28;20808;-58
2022/05/02 02:59:14;;;;;;;40.90;18.10;;;;;;;;;;5041677;28;20531;-58
2022/05/02 03:01:40;;;;;;;39.43;16.90;;;;;;;;;;5038534;28;20299;-61
2022/05/02 03:07:07;;;;;;;40.33;18.83;;;;;;;;;;5008111;28;20051;-61
2022/05/02 03:09:33;;;;;;;34.37;16.23;;;;;;;;;;5037620;28;20426;-58
2022/05/02 03:11:59;;;;;;;40.97;19.07;;;;;;;;;;5034771;28;20292;-58
2022/05/02 03:14:25;;;;;;;40.20;18.83;;;;;;;;;;5039276;28;20669;-59
2022/05/02 03:16:51;;;;;;;43.20;18.77;;;;;;;;;;5037795;28;20315;-58
2022/05/02 03:19:17;;;;;;;48.57;20.93;;;;;;;;;;5035396;28;20076;-58
2022/05/02 03:21:43;;;;;;;38.77;18.50;;;;;;;;;;5032493;28;20526;-58
2022/05/02 03:24:09;;;;;;;36.13;18.07;;;;;;;;;;5034336;28;20045;-58
2022/05/02 03:26:35;;;;;;;37.10;17.67;;;;;;;;;;5035205;28;20411;-59
2022/05/02 03:29:01;;;;;;;47.33;21.13;;;;;;;;;;5040854;28;20180;-58
2022/05/02 03:31:27;;;;;;;47.10;21.30;;;;;;;;;;5038261;28;20127;-58
2022/05/02 03:33:53;;;;;;;50.80;21.27;;;;;;;;;;5032834;28;20496;-58
2022/05/02 03:36:19;;;;;;;43.70;18.67;;;;;;;;;;5040103;28;20299;-58
2022/05/02 03:38:45;;;;;;;37.40;16.63;;;;;;;;;;5039827;28;20384;-58
2022/05/02 03:41:11;;;;;;;36.63;18.63;;;;;;;;;;5036362;28;20677;-58
2022/05/02 03:43:37;;;;;;;39.63;18.30;;;;;;;;;;5033302;28;20053;-58
2022/05/02 03:46:03;;;;;;;35.50;16.97;;;;;;;;;;5039034;28;20781;-61
2022/05/02 03:48:29;;;;;;;41.23;19.13;;;;;;;;;;5039086;28;20303;-59
2022/05/02 03:50:55;;;;;;;42.03;17.87;;;;;;;;;;5038836;28;20046;-59
2022/05/02 03:53:21;;;;;;;37.77;18.10;;;;;;;;;;5033922;28;20291;-59
2022/05/02 03:55:47;;;;;;;38.87;18.20;;;;;;;;;;5028658;28;20076;-59
2022/05/02 03:58:14;;;;;;;36.27;18.83;;;;;;;;;;5047517;28;20419;-59
2022/05/02 04:00:40;;;;;;;37.37;17.53;;;;;;;;;;5038419;28;20045;-59
2022/05/02 04:03:06;;;;;;;43.33;20.47;;;;;;;;;;5039392;28;20099;-59
2022/05/02 04:05:32;;;;;;;46.60;21.13;;;;;;;;;;5039418;28;20131;-59
2022/05/02 04:07:58;;;;;;;45.70;22.47;;;;;;;;;;5030535;28;20474;-59
2022/05/02 04:10:24;;;;;;;46.63;21.93;;;;;;;;;;5032757;28;20060;-59
2022/05/02 04:12:50;;;;;;;40.63;18.20;;;;;;;;;;5030334;28;20045;-59
2022/05/02 04:15:17;;;;;;;31.77;16.40;;;;;;;;;;5045990;28;20342;-59
2022/05/02 04:17:44;;;;;;;40.10;17.43;;;;;;;;;;5032869;28;20052;-59
2022/05/02 04:20:10;;;;;;;48.63;21.17;;;;;;;;;;5044207;28;20052;-59
2022/05/02 04:22:37;;;;;;;42.53;18.73;;;;;;;;;;5043044;28;20288;-59
2022/05/02 04:25:04;;;;;;;53.30;21.10;;;;;;;;;;5034836;28;20104;-59
2022/05/02 04:27:30;;;;;;;42.20;19.10;;;;;;;;;;5042628;28;20048;-59
2022/05/02 04:29:56;;;;;;;47.63;19.63;;;;;;;;;;5038276;28;20311;-59
2022/05/02 04:32:22;;;;;;;39.83;19.50;;;;;;;;;;5035184;28;20048;-59
2022/05/02 04:34:48;;;;;;;55.03;20.53;;;;;;;;;;5041468;28;20296;-59
2022/05/02 04:37:14;;;;;;;50.10;20.00;;;;;;;;;;5035648;28;20041;-59
2022/05/02 04:39:40;;;;;;;41.93;17.90;;;;;;;;;;5028593;28;20109;-59
2022/05/02 04:42:07;;;;;;;38.00;18.97;;;;;;;;;;5029264;28;20301;-59
2022/05/02 04:44:34;;;;;;;35.10;19.33;;;;;;;;;;5036638;28;20040;-59
2022/05/02 04:47:00;;;;;;;38.83;19.87;;;;;;;;;;5038709;28;20382;-60
2022/05/02 04:49:26;;;;;;;45.60;22.20;;;;;;;;;;5034562;28;20049;-59
2022/05/02 04:51:52;;;;;;;53.27;24.00;;;;;;;;;;5037194;28;20307;-59
2022/05/02 04:54:18;;;;;;;47.37;21.53;;;;;;;;;;5045049;28;20291;-59
2022/05/02 04:56:44;;;;;;;50.93;22.40;;;;;;;;;;5038063;28;20307;-59
2022/05/02 04:59:10;;;;;;;52.23;22.37;;;;;;;;;;5041788;28;20295;-59
2022/05/02 05:01:37;;;;;;;44.50;20.97;;;;;;;;;;5042232;28;20296;-59
2022/05/02 05:04:03;;;;;;;50.87;21.17;;;;;;;;;;5044751;28;20299;-59
2022/05/02 05:06:29;;;;;;;41.00;21.40;;;;;;;;;;5038412;28;20132;-59
2022/05/02 05:08:55;;;;;;;52.83;22.67;;;;;;;;;;5046874;28;20037;-59
2022/05/02 05:11:24;;;;;;;54.43;22.63;;;;;;;;;;5038675;28;20499;-60
2022/05/02 05:16:44;;;;;;;54.95;23.38;;;;;;;;;;5032041;28;20491;-59
2022/05/02 05:19:21;;;;;;;47.63;23.03;;;;;;;;;;5031152;28;20037;-60
2022/05/02 05:21:50;;;;;;;55.43;25.60;;;;;;;;;;5038028;28;20549;-60
2022/05/02 05:24:25;;;;;;;56.80;24.80;;;;;;;;;;5040382;28;20288;-59
2022/05/02 05:26:51;;;;;;;58.93;26.33;;;;;;;;;;5036695;28;20037;-59
2022/05/02 05:29:20;;;;;;;67.63;27.50;;;;;;;;;;5040220;28;20047;-59
2022/05/02 05:31:58;;;;;;;61.27;26.97;;;;;;;;;;5035992;28;20099;-59
2022/05/02 05:34:35;;;;;;;56.03;26.43;;;;;;;;;;5029828;28;20049;-59
2022/05/02 05:37:21;;;;;;;60.27;25.17;;;;;;;;;;5030525;28;20403;-60
2022/05/02 05:40:03;;;;;;;55.93;25.40;;;;;;;;;;5038927;28;20124;-59
2022/05/02 05:42:37;;;;;;;64.77;28.90;;;;;;;;;;5038504;28;20052;-59
2022/05/02 05:45:04;;;;;;;64.25;28.08;;;;;;;;;;5030133;28;20041;-59
2022/05/02 05:47:49;;;;;;;68.53;29.40;;;;;;;;;;5038497;28;20045;-60
2022/05/02 05:50:26;;;;;;;63.77;29.97;;;;;;;;;;5038898;28;20053;-60
2022/05/02 05:53:06;;;;;;;65.60;29.47;;;;;;;;;;5040790;28;20045;-59
2022/05/02 05:55:43;;;;;;;61.33;28.73;;;;;;;;;;5032878;28;20079;-60
2022/05/02 05:58:30;;;;;;;54.03;27.07;;;;;;;;;;5037056;28;20120;-60
2022/05/02 06:01:03;;;;;;;66.60;28.73;;;;;;;;;;5031106;28;20045;-60
2022/05/02 06:03:34;;;;;;;49.72;25.13;;;;;;;;;;5030708;28;20053;-60
2022/05/02 06:06:01;;;;;;;65.53;29.87;;;;;;;;;;5038687;28;20095;-60
2022/05/02 06:08:30;;;;;;;61.00;29.13;;;;;;;;;;5037156;28;20052;-60
2022/05/02 06:10:58;;;;;;;58.73;28.80;;;;;;;;;;5046285;28;20102;-60
2022/05/02 06:13:28;;;;;;;57.97;28.07;;;;;;;;;;5030299;28;20049;-60
2022/05/02 06:18:42;;;;;;;52.13;28.70;;;;;;;;;;5040698;28;20053;-60
2022/05/02 06:21:08;;;;;;;47.33;26.27;;;;;;;;;;5031540;28;20075;-60
2022/05/02 06:23:39;;;;;;;53.47;28.43;;;;;;;;;;5029635;28;20096;-60
2022/05/02 06:26:06;;;;;;;42.63;24.90;;;;;;;;;;5046106;28;20048;-60
2022/05/02 06:28:37;;;;;;;48.67;26.43;;;;;;;;;;5035591;28;20049;-61
2022/05/02 06:31:04;;;;;;;48.37;28.00;;;;;;;;;;5039935;28;20107;-60
2022/05/02 06:33:31;;;;;;;48.40;27.37;;;;;;;;;;5036508;28;20049;-60
2022/05/02 06:36:15;;;;;;;49.27;28.70;;;;;;;;;;5045844;28;20155;-60
2022/05/02 06:38:44;;;;;;;52.00;26.80;;;;;;;;;;5042507;28;20534;-61
2022/05/02 06:41:20;;;;;;;43.93;26.83;;;;;;;;;;5039029;28;20048;-61
2022/05/02 06:43:46;;;;;;;47.93;27.03;;;;;;;;;;5049132;28;20072;-60
2022/05/02 06:46:51;;;;;;;48.23;25.73;;;;;;;;;;5039470;28;20073;-61
2022/05/02 06:49:17;;;;;;;;;;;;;;;;;;4984311;28;20053;-61
2022/05/02 06:51:47;;;;;;;38.63;23.77;;;;;;;;;;4962212;28;20000;-60
2022/05/02 06:54:17;;;;;;;50.47;26.37;;;;;;;;;;5009173;28;20045;-60
2022/05/02 06:56:43;;;;;;;39.73;25.67;;;;;;;;;;5048609;28;20044;-60
2022/05/02 06:59:28;;;;;;;47.27;27.60;;;;;;;;;;5032449;28;20049;-61
2022/05/02 07:01:57;;;;;;;43.73;24.60;;;;;;;;;;5042216;28;20519;-61
2022/05/02 07:04:36;;;;;;;47.70;28.77;;;;;;;;;;5031920;28;20053;-61
2022/05/02 07:07:20;;;;;;;43.37;26.60;;;;;;;;;;5047936;28;20064;-60
2022/05/02 07:09:50;;;;;;;33.70;24.40;;;;;;;;;;5040761;28;20419;-61
2022/05/02 07:12:22;;;;;;;26.63;18.93;;;;;;;;;;5048263;28;20434;-61
2022/05/02 07:14:48;;;;;;;29.63;21.87;;;;;;;;;;5033369;28;20964;-60
2022/05/02 07:17:19;;;;;;;32.00;23.03;;;;;;;;;;5047947;28;20159;-61
2022/05/02 07:19:53;;;;;;;34.63;22.60;;;;;;;;;;5045682;28;20041;-60
2022/05/02 07:22:29;;;;;;;32.60;22.83;;;;;;;;;;5040645;28;20057;-61
2022/05/02 07:25:12;;;;;;;31.17;21.37;;;;;;;;;;5030477;28;20048;-61
2022/05/02 07:27:44;;;;;;;31.00;22.88;;;;;;;;;;5043263;28;20087;-61
2022/05/02 07:30:10;;;;;;;28.03;20.10;;;;;;;;;;5035485;28;20407;-61
2022/05/02 07:32:36;;;;;;;31.03;21.17;;;;;;;;;;5041471;28;20525;-61
2022/05/02 07:35:03;;;;;;;29.40;20.83;;;;;;;;;;5034989;28;20041;-61
2022/05/02 07:37:32;;;;;;;28.87;19.30;;;;;;;;;;5046691;28;20037;-61
2022/05/02 07:39:58;;;;;;;20.83;17.20;;;;;;;;;;5048551;28;20044;-61
2022/05/02 07:42:27;;;;;;;27.57;19.40;;;;;;;;;;5043180;28;20033;-61
2022/05/02 07:44:55;;;;;;;30.70;18.57;;;;;;;;;;5030248;28;20076;-61
2022/05/02 07:47:22;;;;;;;25.77;17.27;;;;;;;;;;5041366;28;20053;-61
2022/05/02 07:49:48;;;;;;;24.50;17.33;;;;;;;;;;5050423;28;20036;-61
2022/05/02 07:52:25;;;;;;;18.07;14.83;;;;;;;;;;5043958;28;20044;-61
2022/05/02 07:54:52;;;;;;;18.73;14.17;;;;;;;;;;5040634;28;20048;-61
2022/05/02 07:57:20;;;;;;;18.47;15.63;;;;;;;;;;5035787;28;20045;-61
2022/05/02 07:59:49;;;;;;;22.00;14.87;;;;;;;;;;5031435;28;20148;-61
2022/05/02 08:02:16;;;;;;;18.73;13.43;;;;;;;;;;5033707;28;20037;-60
2022/05/02 08:04:44;;;;;;;17.80;10.60;;;;;;;;;;5028461;28;20050;-61
2022/05/02 08:07:13;;;;;;;13.73;10.67;;;;;;;;;;5030633;28;20124;-61
2022/05/02 08:09:39;;;;;;;9.20;7.87;;;;;;;;;;5047152;28;20064;-60
2022/05/02 08:12:14;;;;;;;14.97;9.10;;;;;;;;;;5031945;28;20487;-60
2022/05/02 08:14:43;;;;;;;12.13;7.70;;;;;;;;;;5038198;28;20629;-61
2022/05/02 08:17:33;;;;;;;12.33;7.10;;;;;;;;;;5042236;28;20055;-61
2022/05/02 08:20:07;;;;;;;12.67;7.97;;;;;;;;;;5025532;28;20049;-61
2022/05/02 08:28:50;;;;;;;10.97;6.10;;;;;;;;;;5042540;28;20490;-60
2022/05/02 08:31:20;;;;;;;8.13;5.97;;;;;;;;;;5037849;28;20048;-61
2022/05/02 08:33:54;;;;;;;9.20;6.63;;;;;;;;;;5043472;28;20250;-60
2022/05/02 08:36:27;;;;;;;10.98;6.30;;;;;;;;;;5043485;28;20048;-60
2022/05/02 08:39:04;;;;;;;9.63;6.97;;;;;;;;;;5039378;28;20084;-61
2022/05/02 08:41:31;;;;;;;10.53;6.23;;;;;;;;;;5040984;28;20091;-61
2022/05/02 08:44:16;;;;;;;9.37;5.50;;;;;;;;;;5044743;28;20827;-61
2022/05/02 08:46:48;;;;;;;10.03;6.20;;;;;;;;;;5050827;28;20041;-61
2022/05/02 08:49:32;;;;;;;11.83;5.40;;;;;;;;;;5043166;28;20395;-61
2022/05/02 08:52:08;;;;;;;8.10;5.27;;;;;;;;;;5043716;28;20044;-61
2022/05/02 08:54:34;;;;;;;7.33;5.00;;;;;;;;;;5043289;28;20076;-61
2022/05/02 08:57:19;;;;;;;7.23;4.97;;;;;;;;;;5050921;28;20149;-60
2022/05/02 08:59:45;;;;;;;6.80;5.40;;;;;;;;;;5033068;28;20088;-61
2022/05/02 09:02:17;;;;;;;9.00;5.67;;;;;;;;;;5036769;28;20088;-61
2022/05/02 09:05:01;;;;;;;9.73;4.80;;;;;;;;;;5042103;28;20529;-61
2022/05/02 09:07:30;;;;;;;8.27;4.63;;;;;;;;;;5034340;28;20046;-61
2022/05/02 09:10:20;;;;;;;8.13;4.43;;;;;;;;;;5031487;28;20427;-61
2022/05/02 09:12:55;;;;;;;6.50;5.20;;;;;;;;;;5015957;28;20146;-61
2022/05/02 09:15:54;;;;;;;7.73;5.23;;;;;;;;;;5045063;28;20081;-60
2022/05/02 09:18:39;;;;;;;9.60;5.73;;;;;;;;;;5017574;28;20064;-60
2022/05/02 09:21:14;;;;;;;6.53;4.70;;;;;;;;;;5039943;28;20817;-61
2022/05/02 09:23:43;;;;;;;6.37;4.80;;;;;;;;;;5039213;28;20188;-61
2022/05/02 09:26:27;;;;;;;7.90;4.50;;;;;;;;;;5040767;28;20052;-61
2022/05/02 09:29:29;;;;;;;7.10;3.93;;;;;;;;;;5041280;28;20060;-61
2022/05/02 09:31:59;;;;;;;7.90;4.80;;;;;;;;;;5028487;28;20137;-61
2022/05/02 09:34:35;;;;;;;6.30;4.47;;;;;;;;;;5042204;28;20798;-61
2022/05/02 09:37:11;;;;;;;7.13;4.63;;;;;;;;;;5031944;28;20188;-61
2022/05/02 09:39:40;;;;;;;7.83;4.93;;;;;;;;;;5046114;28;20049;-61
2022/05/02 09:42:19;;;;;;;7.33;5.10;;;;;;;;;;5035587;28;20053;-61
2022/05/02 09:50:53;;;;;;;5.73;4.27;;;;;;;;;;5022377;28;20524;-61
2022/05/02 09:53:26;;;;;;;6.47;4.53;;;;;;;;;;5036179;28;20515;-61
2022/05/02 09:59:02;;;;;;;6.83;4.80;;;;;;;;;;5040927;28;20080;-61
2022/05/02 10:01:31;;;;;;;5.47;4.60;;;;;;;;;;5043696;28;20593;-61
2022/05/02 10:04:00;;;;;;;5.57;4.17;;;;;;;;;;5047303;28;20128;-61
2022/05/02 10:06:38;;;;;;;8.53;4.43;;;;;;;;;;5048920;28;20043;-61
2022/05/02 10:09:05;;;;;;;5.63;4.50;;;;;;;;;;5047396;28;20037;-61
2022/05/02 10:11:53;;;;;;;6.90;4.70;;;;;;;;;;5050379;28;20140;-61
2022/05/02 10:14:19;;;;;;;8.33;4.70;;;;;;;;;;5038167;28;20047;-61
2022/05/02 10:16:45;;;;;;;6.90;4.30;;;;;;;;;;5046276;28;20435;-61
2022/05/02 10:19:19;;;;;;;5.77;4.17;;;;;;;;;;5048464;28;20589;-61
2022/05/02 10:22:08;;;;;;;7.20;4.87;;;;;;;;;;5040333;28;20138;-61
2022/05/02 10:24:34;;;;;;;5.47;3.60;;;;;;;;;;5038597;28;20057;-61
2022/05/02 10:27:11;;;;;;;6.10;4.73;;;;;;;;;;5031364;28;20045;-61
2022/05/02 10:29:52;;;;;;;5.90;4.13;;;;;;;;;;5036664;28;20359;-61
2022/05/02 10:32:27;;;;;;;9.18;4.13;;;;;;;;;;5038606;28;20043;-61
2022/05/02 10:34:55;;;;;;;6.10;4.80;;;;;;;;;;5034724;28;20072;-61
2022/05/02 10:37:31;;;;;;;6.07;4.40;;;;;;;;;;5043271;28;20035;-61
2022/05/02 10:40:01;;;;;;;6.60;4.53;;;;;;;;;;5045913;28;20045;-61
2022/05/02 10:42:30;;;;;;;6.97;4.28;;;;;;;;;;5035815;28;20423;-61
2022/05/02 10:45:07;;;;;;;5.65;4.03;;;;;;;;;;5053184;28;20090;-61
2022/05/02 10:47:41;;;;;;;6.82;3.92;;;;;;;;;;5033260;28;20041;-61
2022/05/02 10:50:16;;;;;;;7.03;3.78;;;;;;;;;;5039068;28;20048;-61
2022/05/02 10:53:00;;;;;;;4.50;4.00;;;;;;;;;;5040636;28;20099;-61
2022/05/02 10:55:31;;;;;;;5.15;4.18;;;;;;;;;;5039648;28;20041;-61
2022/05/02 10:58:02;;;;;;;7.18;4.03;;;;;;;;;;5039645;28;20656;-61
2022/05/02 11:00:28;;;;;;;7.50;4.20;;;;;;;;;;5035753;28;20582;-61
2022/05/02 11:03:06;;;;;;;4.90;3.70;;;;;;;;;;5038197;28;20053;-62
2022/05/02 11:05:36;;;;;;;5.35;4.30;;;;;;;;;;5033189;28;20032;-61
2022/05/02 11:08:11;;;;;;;4.97;3.63;;;;;;;;;;5041569;28;20038;-61
2022/05/02 11:10:47;;;;;;;7.45;4.43;;;;;;;;;;5038076;28;20049;-61
2022/05/02 11:13:31;;;;;;;6.30;4.47;;;;;;;;;;5039742;28;20048;-61
2022/05/02 11:16:03;;;;;;;5.10;4.07;;;;;;;;;;5033454;28;20049;-61
2022/05/02 11:21:26;;;;;;;5.10;3.47;;;;;;;;;;5042949;28;20520;-62
2022/05/02 11:24:02;;;;;;;6.05;3.97;;;;;;;;;;5029495;28;20498;-61
2022/05/02 11:26:54;;;;;;;6.88;4.10;;;;;;;;;;5028866;28;20546;-61
2022/05/02 11:29:38;;;;;;;5.93;4.10;;;;;;;;;;5031268;28;20063;-62
2022/05/02 11:32:06;;;;;;;5.57;3.90;;;;;;;;;;5027360;28;20041;-62
2022/05/02 11:34:45;;;;;;;6.22;3.78;;;;;;;;;;5028287;28;20055;-61
2022/05/02 11:37:16;;;;;;;7.05;3.95;;;;;;;;;;5027130;28;20168;-62
2022/05/02 11:39:57;;;;;;;8.40;3.88;;;;;;;;;;5036047;28;20499;-62
2022/05/02 11:42:28;;;;;;;6.28;3.72;;;;;;;;;;5028250;28;20037;-62
2022/05/02 11:45:12;;;;;;;5.95;4.05;;;;;;;;;;5028991;28;20049;-62
2022/05/02 11:47:40;;;;;;;5.68;4.47;;;;;;;;;;5032736;28;20138;-61
2022/05/02 11:50:09;;;;;;;8.80;4.90;;;;;;;;;;5027564;28;20065;-61
2022/05/02 11:52:36;;;;;;;6.95;4.38;;;;;;;;;;5028280;28;20046;-61
2022/05/02 11:55:04;;;;;;;7.10;4.03;;;;;;;;;;5046143;28;20045;-61
2022/05/02 11:57:40;;;;;;;5.63;4.25;;;;;;;;;;5043484;28;20048;-62
2022/05/02 12:00:11;;;;;;;5.70;4.03;;;;;;;;;;5045594;28;20075;-61
2022/05/02 12:02:38;;;;;;;7.25;4.70;;;;;;;;;;5039854;28;20056;-62
2022/05/02 12:05:05;;;;;;;6.25;4.78;;;;;;;;;;5036735;28;20140;-62
2022/05/02 12:07:32;;;;;;;7.85;4.60;;;;;;;;;;5046985;28;20056;-62
2022/05/02 12:10:03;;;;;;;6.10;5.35;;;;;;;;;;5043246;28;20044;-61
2022/05/02 12:12:31;;;;;;;5.68;4.25;;;;;;;;;;5028762;28;20050;-61
2022/05/02 12:15:03;;;;;;;8.68;4.55;;;;;;;;;;5045162;28;20049;-62
2022/05/02 12:17:29;;;;;;;6.75;4.88;;;;;;;;;;5035509;28;20591;-62
2022/05/02 12:19:55;;;;;;;6.50;4.32;;;;;;;;;;5045565;28;20182;-61
2022/05/02 12:22:24;;;;;;;6.32;3.92;;;;;;;;;;5037468;28;20068;-62
2022/05/02 12:24:54;;;;;;;4.80;3.80;;;;;;;;;;5026861;28;20037;-62
2022/05/02 12:27:22;;;;;;;8.88;3.92;;;;;;;;;;5030104;28;20042;-62
2022/05/02 12:29:58;;;;;;;7.38;3.90;;;;;;;;;;5039884;28;20099;-62
2022/05/02 12:32:30;;;;;;;5.35;4.53;;;;;;;;;;5036077;28;20111;-62
2022/05/02 12:34:57;;;;;;;6.43;4.10;;;;;;;;;;5041977;28;20037;-62
2022/05/02 12:37:33;;;;;;;8.65;4.22;;;;;;;;;;5038001;28;20044;-61
2022/05/02 12:40:15;;;;;;;6.35;3.63;;;;;;;;;;5041540;28;20033;-62
2022/05/02 12:42:46;;;;;;;5.68;3.42;;;;;;;;;;5044071;28;20045;-62
2022/05/02 12:45:14;;;;;;;9.93;4.15;;;;;;;;;;5042635;28;20120;-62
2022/05/02 12:47:42;;;;;;;5.15;3.65;;;;;;;;;;5028484;28;20053;-62
2022/05/02 12:50:14;;;;;;;6.05;3.92;;;;;;;;;;5029479;28;20044;-62
2022/05/02 12:52:44;;;;;;;8.48;4.70;;;;;;;;;;5027623;28;20053;-61
2022/05/02 12:55:11;;;;;;;6.55;3.88;;;;;;;;;;5037839;28;20477;-62
2022/05/02 13:00:30;;;;;;;5.13;3.75;;;;;;;;;;5038462;28;20054;-62
2022/05/02 13:02:59;;;;;;;4.30;3.88;;;;;;;;;;5035545;28;20045;-62
2022/05/02 13:05:29;;;;;;;6.05;4.15;;;;;;;;;;5027522;28;20415;-62
2022/05/02 13:07:56;;;;;;;6.70;3.63;;;;;;;;;;5039279;28;20453;-62
2022/05/02 13:10:26;;;;;;;5.70;3.60;;;;;;;;;;5046019;28;20047;-62
2022/05/02 13:12:58;;;;;;;4.47;3.10;;;;;;;;;;5026860;28;20124;-62
2022/05/02 13:15:25;;;;;;;10.40;4.50;;;;;;;;;;5027692;28;20052;-62
2022/05/02 13:17:56;;;;;;;9.15;4.22;;;;;;;;;;5037385;28;20077;-62
2022/05/02 13:20:22;;;;;;;4.95;4.10;;;;;;;;;;5029992;28;20144;-62
2022/05/02 13:22:59;;;;;;;4.65;4.03;;;;;;;;;;5038879;28;20065;-61
2022/05/02 13:25:43;;;;;;;5.25;3.97;;;;;;;;;;5042671;28;20529;-61
2022/05/02 13:28:10;;;;;;;6.50;4.25;;;;;;;;;;5039770;28;20073;-61
2022/05/02 13:30:36;;;;;;;5.05;3.75;;;;;;;;;;5030232;28;20107;-62
2022/05/02 13:33:08;;;;;;;4.32;2.70;;;;;;;;;;5031129;28;20472;-61
2022/05/02 13:35:35;;;;;;;6.60;4.25;;;;;;;;;;5043471;28;20152;-61
2022/05/02 13:38:01;;;;;;;7.65;3.60;;;;;;;;;;5041981;28;20045;-61
2022/05/02 13:40:40;;;;;;;5.15;3.75;;;;;;;;;;5030653;28;20451;-61
2022/05/02 13:43:11;;;;;;;5.68;4.15;;;;;;;;;;5030862;28;20125;-61
2022/05/02 13:45:51;;;;;;;6.80;4.00;;;;;;;;;;5030414;28;20547;-61
2022/05/02 13:48:56;;;;;;;7.93;4.20;;;;;;;;;;5031683;28;20060;-62
2022/05/02 13:51:33;;;;;;;5.20;4.28;;;;;;;;;;4986248;28;20069;-61
2022/05/02 13:54:14;;;;;;;5.25;4.57;;;;;;;;;;4988160;28;20075;-61
2022/05/02 13:56:53;;;;;;;7.50;4.60;;;;;;;;;;5016086;28;20128;-61
2022/05/02 13:59:34;;;;;;;4.95;4.00;;;;;;;;;;5041460;28;20056;-61
2022/05/02 14:02:06;;;;;;;7.82;4.18;;;;;;;;;;5031121;28;20116;-61
2022/05/02 14:07:05;;;;;;;8.25;3.83;;;;;;;;;;5030038;28;21113;-61
2022/05/02 14:09:44;;;;;;;7.28;3.60;;;;;;;;;;5032592;28;20054;-61
2022/05/02 14:12:30;;;;;;;5.38;4.32;;;;;;;;;;5050288;28;20098;-61
2022/05/02 14:15:01;;;;;;;9.40;3.85;;;;;;;;;;5042166;28;20045;-61
2022/05/02 14:17:31;;;;;;;6.65;3.95;;;;;;;;;;5042945;28;20466;-61
2022/05/02 14:20:13;;;;;;;6.25;3.63;;;;;;;;;;5038293;28;20044;-61
2022/05/02 14:22:40;;;;;;;6.50;4.13;;;;;;;;;;5043496;28;20049;-61
2022/05/02 14:25:08;;;;;;;7.40;4.25;;;;;;;;;;5033068;28;20037;-61
2022/05/02 14:27:34;;;;;;;7.55;4.35;;;;;;;;;;5028857;28;20051;-61
2022/05/02 14:30:01;;;;;;;7.00;3.78;;;;;;;;;;5037380;28;20048;-61
2022/05/02 14:32:47;;;;;;;4.97;3.90;;;;;;;;;;5049702;28;20050;-61
2022/05/02 14:35:27;;;;;;;5.05;3.85;;;;;;;;;;5044169;28;20053;-61
2022/05/02 14:37:54;;;;;;;4.30;3.58;;;;;;;;;;5038292;28;20132;-61
2022/05/02 14:40:20;;;;;;;4.95;3.80;;;;;;;;;;5049695;28;20049;-61
2022/05/02 14:42:46;;;;;;;6.20;4.15;;;;;;;;;;5041500;28;20513;-61
2022/05/02 14:45:12;;;;;;;4.82;4.05;;;;;;;;;;5040245;28;20041;-61
2022/05/02 14:47:41;;;;;;;10.10;3.80;;;;;;;;;;5039023;28;20041;-61
2022/05/02 14:50:08;;;;;;;5.25;3.42;;;;;;;;;;5037239;28;20041;-61
2022/05/02 14:52:36;;;;;;;7.70;3.92;;;;;;;;;;5035589;28;20045;-62
2022/05/02 14:55:03;;;;;;;7.10;4.05;;;;;;;;;;5038000;28;20083;-61
2022/05/02 14:57:30;;;;;;;5.45;3.63;;;;;;;;;;5036965;28;20046;-62
2022/05/02 14:59:59;;;;;;;5.15;3.60;;;;;;;;;;5037723;28;20182;-62
2022/05/02 15:02:26;;;;;;;8.48;3.42;;;;;;;;;;5038466;28;20044;-62
2022/05/02 15:04:53;;;;;;;6.40;3.55;;;;;;;;;;5037777;28;20051;-61
2022/05/02 15:07:21;;;;;;;4.55;3.42;;;;;;;;;;5047695;28;20048;-62
2022/05/02 15:12:41;;;;;;;4.90;3.20;;;;;;;;;;5040036;28;20044;-61
2022/05/02 15:15:26;;;;;;;5.38;3.70;;;;;;;;;;5038900;28;20041;-61
2022/05/02 15:18:05;;;;;;;4.90;3.17;;;;;;;;;;5035015;28;20087;-61
2022/05/02 15:20:37;;;;;;;5.50;3.83;;;;;;;;;;5038927;28;20049;-61
2022/05/02 15:23:04;;;;;;;;;;;;;;;;;;5039118;28;20040;-61
2022/05/02 15:25:30;;;;;;;7.50;3.95;;;;;;;;;;5037047;28;19921;-61
2022/05/02 15:39:11;;;;;;;7.00;3.75;;;;;;;;;;5038692;28;20522;-61
2022/05/02 15:41:40;;;;;;;5.35;3.58;;;;;;;;;;5036439;28;20046;-61